Skeena-Queen Charlotte Regional District, British Columbia

2:42 AM PDT on August 27, 2016 (GMT -0700)
Sandspit | | Change Station

Elev 20 ft 53.25 °N, 131.81 °W | Updated 42 minutes ago

Mostly Cloudy
Mostly Cloudy
63 °F
Feels Like 63 °F
N
18
Wind Variable Wind from WNW
Gusts 30 mph

Today
High -- | Low -- °F
--% Chance of Precip.
Yesterday
High -- | Low -- °F
Precip. -- in
Pressure 29.92 in
Visibility 9.0 miles
Clouds Mostly Cloudy 3600 ft
Dew Point 54 °F
Humidity 72%
Rainfall 0.00 in
Snow Depth Not available.
6:49 AM 8:45 PM
Waning Crescent, 26% visible
METAR CYZP 270900Z AUTO 29016G26KT 9SM BKN036 17/12 A2991 RMK SLP131 DENSITY ALT 200FT
Pressure 29.92 in
Visibility 9.0 miles
Clouds Mostly Cloudy 3600 ft
Dew Point 54 °F
Humidity 72%
Rainfall 0.00 in
Snow Depth Not available.
6:49 AM 8:45 PM
Waning Crescent, 26% visible
METAR CYZP 270900Z AUTO 29016G26KT 9SM BKN036 17/12 A2991 RMK SLP131 DENSITY ALT 200FT

10-Day Weather Forecast

No radar image for this location.
×

Almanac

Astronomy

Aug. 27, 2016 Rise Set
Actual Time
Civil Twilight
Nautical Twilight
Astronomical Twilight
Moon
Length of Visible Light
Length of Day
Tomorrow will be .
, % of the Moon is Illuminated

Today's Extremes

Country Highs Country Lows

Community

WunderPhotos

Upload Photos

1,935,313 photos uploaded!

WunderBlog® & News

Nearby

Air Quality

  Air Quality AQ Index Pollutant
Not available.

Snow Depth

Station Depth Elevation

Earthquake Activity

City Distance Mag. Time & Date
Minimum magnitude displayed is 2.5.

Coastal Water Temperatures

Place Temperature

Stations

Nearby Weather Stations

Station Location Temp. Windchill Dew Point Humidity Wind Precip. Elev Updated Type
                   

Watches & Warnings

There are currently no watches in effect.